createdAt,value
2019-05-07T00:00:53.485Z,437
2019-05-07T00:02:03.138Z,436
2019-05-07T00:03:12.287Z,436
2019-05-07T00:04:19.315Z,436
2019-05-07T00:05:26.553Z,437
2019-05-07T00:06:33.779Z,437
2019-05-07T00:07:43.012Z,437
2019-05-07T00:08:52.706Z,436
2019-05-07T00:09:59.919Z,436
2019-05-07T00:11:06.854Z,436
2019-05-07T00:12:13.774Z,437
2019-05-07T00:13:23.416Z,436
2019-05-07T00:14:34.491Z,436
2019-05-07T00:15:42.916Z,436
2019-05-07T00:16:50.126Z,436
2019-05-07T00:17:57.053Z,437
2019-05-07T00:19:03.987Z,437
2019-05-07T00:20:13.264Z,437
2019-05-07T00:21:20.471Z,437
2019-05-07T00:22:30.009Z,437
2019-05-07T00:23:39.391Z,437
2019-05-07T00:24:46.327Z,437
2019-05-07T00:25:53.733Z,436
2019-05-07T00:27:03.232Z,437
2019-05-07T00:28:12.657Z,437
2019-05-07T00:29:21.782Z,437
2019-05-07T00:30:29.513Z,438
2019-05-07T00:31:36.719Z,438
2019-05-07T00:32:43.927Z,437
2019-05-07T00:33:53.540Z,437
2019-05-07T00:35:02.944Z,438
2019-05-07T00:36:12.189Z,437
2019-05-07T00:37:19.556Z,437
2019-05-07T00:38:28.494Z,437
2019-05-07T00:39:35.697Z,437
2019-05-07T00:40:43.327Z,438
2019-05-07T00:41:52.691Z,437
2019-05-07T00:42:59.912Z,437
2019-05-07T00:44:09.388Z,437
2019-05-07T00:45:24.336Z,438
2019-05-07T00:46:33.198Z,437
2019-05-07T00:47:42.356Z,437
2019-05-07T00:48:49.793Z,437
2019-05-07T00:49:56.991Z,437
2019-05-07T00:51:04.213Z,438
2019-05-07T00:52:14.954Z,437
2019-05-07T00:53:24.568Z,438
2019-05-07T00:54:33.534Z,438
2019-05-07T00:55:43.245Z,438
2019-05-07T00:56:52.637Z,438
2019-05-07T00:58:02.125Z,439
2019-05-07T00:59:09.525Z,438
2019-05-07T01:00:16.730Z,439
2019-05-07T01:01:23.925Z,438
2019-05-07T01:02:33.376Z,439
2019-05-07T01:03:42.858Z,439
2019-05-07T01:04:49.794Z,438
2019-05-07T01:05:57.018Z,438
2019-05-07T01:07:04.232Z,439
2019-05-07T01:08:13.613Z,438
2019-05-07T01:09:23.323Z,438
2019-05-07T01:10:30.304Z,438
2019-05-07T01:11:39.664Z,438
2019-05-07T01:12:46.874Z,439
2019-05-07T01:13:54.285Z,438
2019-05-07T01:15:03.769Z,439
2019-05-07T01:16:12.376Z,438
2019-05-07T01:17:19.796Z,439
2019-05-07T01:18:29.380Z,438
2019-05-07T01:19:36.574Z,439
2019-05-07T01:20:43.786Z,438
2019-05-07T01:21:53.403Z,438
2019-05-07T01:23:02.341Z,438
2019-05-07T01:24:09.775Z,438
2019-05-07T01:25:19.070Z,439
2019-05-07T01:26:26.010Z,439
2019-05-07T01:27:33.262Z,439
2019-05-07T01:28:42.587Z,439
2019-05-07T01:29:49.798Z,439
2019-05-07T01:30:59.470Z,438
2019-05-07T01:32:06.397Z,438
2019-05-07T01:33:13.604Z,438
2019-05-07T01:34:22.835Z,438
2019-05-07T01:35:32.171Z,439
2019-05-07T01:36:39.895Z,439
2019-05-07T01:37:49.431Z,438
2019-05-07T01:38:56.083Z,438
2019-05-07T01:40:03.846Z,439
2019-05-07T01:41:13.453Z,438
2019-05-07T01:42:22.630Z,439
2019-05-07T01:43:31.868Z,438
2019-05-07T01:44:39.277Z,438
2019-05-07T01:45:53.443Z,438
2019-05-07T01:47:02.968Z,439
2019-05-07T01:48:12.318Z,439
2019-05-07T01:49:19.758Z,438
2019-05-07T01:50:26.963Z,439
2019-05-07T01:51:34.137Z,439
2019-05-07T01:52:43.661Z,439
2019-05-07T01:53:52.648Z,438
2019-05-07T01:54:59.861Z,439
2019-05-07T01:56:12.161Z,439
2019-05-07T01:57:19.616Z,439
2019-05-07T01:58:26.548Z,439
2019-05-07T01:59:33.751Z,439
2019-05-07T02:00:42.859Z,440
2019-05-07T02:01:52.179Z,439
2019-05-07T02:02:59.215Z,439
2019-05-07T02:04:06.410Z,439
2019-05-07T02:05:13.623Z,439
2019-05-07T02:06:22.988Z,439
2019-05-07T02:07:30.219Z,439
2019-05-07T02:08:37.152Z,440
2019-05-07T02:09:44.377Z,440
2019-05-07T02:10:53.320Z,439
2019-05-07T02:12:02.840Z,439
2019-05-07T02:13:10.041Z,439
2019-05-07T02:14:19.312Z,439
2019-05-07T02:15:28.576Z,440
2019-05-07T02:16:35.241Z,439
2019-05-07T02:17:43.980Z,439
2019-05-07T02:18:53.229Z,439
2019-05-07T02:20:03.059Z,439
2019-05-07T02:21:12.716Z,439
2019-05-07T02:22:19.766Z,439
2019-05-07T02:23:28.894Z,439
2019-05-07T02:24:36.093Z,439
2019-05-07T02:25:43.310Z,440
2019-05-07T02:26:52.566Z,439
2019-05-07T02:28:02.009Z,439
2019-05-07T02:29:09.129Z,439
2019-05-07T02:30:16.147Z,439
2019-05-07T02:31:24.335Z,439
2019-05-07T02:32:34.475Z,439
2019-05-07T02:33:44.511Z,439
2019-05-07T02:34:54.874Z,439
2019-05-07T02:36:03.656Z,439
2019-05-07T02:37:10.858Z,439
2019-05-07T02:38:18.069Z,440
2019-05-07T02:39:25.382Z,440
2019-05-07T02:40:34.522Z,439
2019-05-07T02:41:45.068Z,440
2019-05-07T02:42:55.081Z,439
2019-05-07T02:44:05.341Z,440
2019-05-07T02:45:14.413Z,439
2019-05-07T02:46:35.984Z,440
2019-05-07T02:47:44.564Z,440
2019-05-07T02:48:54.507Z,440
2019-05-07T02:50:04.119Z,440
2019-05-07T02:51:13.987Z,439
2019-05-07T02:52:24.030Z,440
2019-05-07T02:53:34.624Z,440
2019-05-07T02:54:44.621Z,440
2019-05-07T02:55:53.943Z,440
2019-05-07T02:57:04.229Z,440
2019-05-07T02:58:14.707Z,440
2019-05-07T02:59:24.408Z,440
2019-05-07T03:00:34.325Z,440
2019-05-07T03:01:44.285Z,440
2019-05-07T03:02:54.157Z,440
2019-05-07T03:04:03.861Z,440
2019-05-07T03:05:14.585Z,439
2019-05-07T03:06:24.355Z,440
2019-05-07T03:07:34.511Z,440
2019-05-07T03:08:44.846Z,440
2019-05-07T03:09:54.776Z,440
2019-05-07T03:11:04.452Z,440
2019-05-07T03:12:14.242Z,440
2019-05-07T03:13:24.674Z,440
2019-05-07T03:14:33.155Z,440
2019-05-07T03:15:43.185Z,440
2019-05-07T03:16:54.532Z,440
2019-05-07T03:18:04.486Z,440
2019-05-07T03:19:14.458Z,440
2019-05-07T03:20:23.718Z,440
2019-05-07T03:21:33.786Z,441
2019-05-07T03:22:43.848Z,441
2019-05-07T03:23:54.283Z,441
2019-05-07T03:25:04.407Z,440
2019-05-07T03:26:14.474Z,441
2019-05-07T03:27:24.346Z,440
2019-05-07T03:28:34.546Z,441
2019-05-07T03:29:45.196Z,441
2019-05-07T03:30:57.919Z,441
2019-05-07T03:32:07.236Z,442
2019-05-07T03:33:17.355Z,441
2019-05-07T03:34:26.836Z,441
2019-05-07T03:35:38.857Z,441
2019-05-07T03:36:55.684Z,441
2019-05-07T03:38:04.723Z,441
2019-05-07T03:39:15.436Z,441
2019-05-07T03:40:23.908Z,441
2019-05-07T03:41:34.276Z,442
2019-05-07T03:42:44.942Z,442
2019-05-07T03:43:53.782Z,442
2019-05-07T03:45:04.606Z,441
2019-05-07T03:46:14.723Z,441
2019-05-07T03:47:24.779Z,441
2019-05-07T03:48:34.369Z,441
2019-05-07T03:49:44.044Z,441
2019-05-07T03:50:54.071Z,441
2019-05-07T03:52:05.163Z,441
2019-05-07T03:53:15.320Z,441
2019-05-07T03:54:25.010Z,441
2019-05-07T03:55:34.293Z,441
2019-05-07T03:56:44.527Z,442
2019-05-07T03:57:53.823Z,441
2019-05-07T03:59:04.019Z,441
2019-05-07T04:00:14.174Z,441
2019-05-07T04:01:24.937Z,441
2019-05-07T04:02:34.265Z,442
2019-05-07T04:03:45.112Z,441
2019-05-07T04:04:53.932Z,442
2019-05-07T04:06:04.854Z,441
2019-05-07T04:07:14.742Z,441
2019-05-07T04:08:24.852Z,441
2019-05-07T04:09:34.398Z,441
2019-05-07T04:10:45.189Z,440
2019-05-07T04:11:54.031Z,441
2019-05-07T04:13:04.870Z,441
2019-05-07T04:14:14.735Z,440
2019-05-07T04:15:24.100Z,440
2019-05-07T04:16:34.202Z,441
2019-05-07T04:17:44.013Z,441
2019-05-07T04:18:53.985Z,440
2019-05-07T04:20:04.911Z,440
2019-05-07T04:21:15.064Z,440
2019-05-07T04:22:29.683Z,441
2019-05-07T04:23:36.617Z,441
2019-05-07T04:24:44.027Z,440
2019-05-07T04:25:53.882Z,440
2019-05-07T04:27:04.383Z,440
2019-05-07T04:28:14.520Z,441
2019-05-07T04:29:24.125Z,440
2019-05-07T04:30:33.946Z,440
2019-05-07T04:31:44.663Z,440
2019-05-07T04:32:54.023Z,441
2019-05-07T04:34:04.566Z,440
2019-05-07T04:35:13.642Z,440
2019-05-07T04:36:24.040Z,440
2019-05-07T04:37:34.063Z,441
2019-05-07T04:38:44.412Z,441
2019-05-07T04:39:54.769Z,440
2019-05-07T04:41:04.894Z,440
2019-05-07T04:42:13.996Z,440
2019-05-07T04:43:24.160Z,441
2019-05-07T04:44:34.098Z,439
2019-05-07T04:45:44.278Z,440
2019-05-07T04:46:54.326Z,441
2019-05-07T04:48:04.150Z,440
2019-05-07T04:49:13.962Z,439
2019-05-07T04:50:48.023Z,440
2019-05-07T04:51:55.311Z,439
2019-05-07T04:53:03.643Z,439
2019-05-07T04:54:14.023Z,439
2019-05-07T04:55:23.956Z,439
2019-05-07T04:56:34.058Z,439
2019-05-07T04:57:44.094Z,438
2019-05-07T04:58:54.118Z,439
2019-05-07T05:00:04.556Z,439
2019-05-07T05:01:14.812Z,438
2019-05-07T05:02:24.105Z,438
2019-05-07T05:03:38.870Z,438
2019-05-07T05:04:46.362Z,438
2019-05-07T05:05:54.459Z,438
2019-05-07T05:07:03.612Z,437
2019-05-07T05:08:13.796Z,437
2019-05-07T05:09:23.716Z,437
2019-05-07T05:10:34.070Z,437
2019-05-07T05:11:44.236Z,436
2019-05-07T05:12:54.528Z,436
2019-05-07T05:14:08.378Z,437
2019-05-07T05:15:15.616Z,436
2019-05-07T05:16:23.456Z,437
2019-05-07T05:17:50.814Z,436
2019-05-07T05:19:02.946Z,435
2019-05-07T05:20:10.146Z,435
2019-05-07T05:21:19.834Z,435
2019-05-07T05:22:29.224Z,435
2019-05-07T05:23:38.433Z,435
2019-05-07T05:24:45.362Z,435
2019-05-07T05:25:53.257Z,433
2019-05-07T05:27:02.359Z,434
2019-05-07T05:28:12.161Z,433
2019-05-07T05:29:19.593Z,434
2019-05-07T05:30:26.803Z,433
2019-05-07T05:31:34.208Z,433
2019-05-07T05:32:43.451Z,432
2019-05-07T05:33:53.017Z,433
2019-05-07T05:34:59.946Z,432
2019-05-07T05:36:07.168Z,432
2019-05-07T05:37:14.376Z,432
2019-05-07T05:38:23.204Z,433
2019-05-07T22:00:06.504Z,419
2019-05-07T22:01:13.709Z,420
2019-05-07T22:02:22.973Z,420
2019-05-07T22:03:32.386Z,420
